Latest Weather Observations for Swan Hill

IDV60801

Issued at 4:31 pm EST Thursday 7 May 2015 (issued every 30 minutes, with the page automatically refreshed every 10 minutes)

About weather observations | Map of weather stations | Latest weather observations for VIC | Other Formats
Station Details ID: 077094 Name: SWAN HILL AERODROME Lat: -35.38 Lon: 143.54 Height: 71.0 m
Data from the previous 72 hours. | See also: Recent months at Swan Hill
Date/Time
EST
Temp
°C
App
Temp
°C
Dew
Point
Rel
Hum
%
Delta-T
°C
Wind Press
QNH
hPa
Press
MSL
hPa
Rain
since 9 am
mm
Dir
 
Spd
km/h
Gust
km/h
Spd
kts
Gust
kts
07/04:30pm 15.6 7.9 3.4 44 5.6 WSW 33 43 18 23 1021.8 1021.8 0.0
07/04:00pm 16.1 8.4 3.5 43 5.8 WSW 33 44 18 24 1021.7 1021.7 0.0
07/03:30pm 16.3 8.6 3.4 42 5.9 W 33 43 18 23 1021.6 1021.6 0.0
07/03:00pm 15.8 9.2 4.2 46 5.4 SW 28 39 15 21 1021.6 1021.6 0.0
07/02:30pm 15.8 10.0 4.2 46 5.4 SW 24 33 13 18 1021.6 1021.6 0.0
07/02:00pm 16.2 8.4 2.9 41 6.0 WSW 33 46 18 25 1021.7 1021.7 0.0
07/01:46pm 16.1 9.0 3.5 43 5.8 WSW 30 48 16 26 1021.8 1021.8 0.0
07/01:30pm 16.2 8.4 2.9 41 6.1 WSW 33 44 18 24 1021.7 1021.7 0.0
07/01:12pm 16.3 8.8 3.4 42 5.9 WSW 32 50 17 27 1021.8 1021.8 0.0
07/01:00pm 15.8 7.6 2.9 42 5.8 WSW 35 44 19 24 1021.9 1021.9 0.0
07/12:30pm 15.3 8.7 4.1 47 5.2 WSW 28 37 15 20 1022.3 1022.3 0.0
07/12:00pm 15.5 8.4 3.6 45 5.4 WSW 30 43 16 23 1022.4 1022.4 0.0
07/11:30am 14.7 8.5 4.1 49 4.9 WSW 26 37 14 20 1023.1 1023.1 0.0
07/11:00am 14.4 7.6 5.0 53 4.4 WSW 30 43 16 23 1023.2 1023.2 0.0
07/10:00am 13.4 7.9 6.0 61 3.5 W 24 32 13 17 1023.0 1023.0 0.0
07/09:30am 13.2 7.9 7.0 66 3.0 WSW 24 32 13 17 1022.9 1022.9 0.0
07/09:00am 11.7 6.5 7.2 74 2.2 W 24 30 13 16 1022.8 1022.8 0.0
07/08:30am 10.4 5.9 7.1 80 1.6 W 20 26 11 14 1022.4 1022.4 0.0
07/08:00am 9.2 5.2 6.6 84 1.2 W 17 22 9 12 1022.1 1022.1 0.0
07/07:30am 9.2 4.8 6.6 84 1.2 WNW 19 22 10 12 1021.7 1021.7 0.0
07/07:00am 9.3 5.7 6.7 84 1.2 WNW 15 20 8 11 1021.4 1021.4 0.0
07/06:30am 9.5 5.5 6.6 82 1.4 W 17 20 9 11 1021.4 1021.4 0.0
07/06:00am 9.8 5.9 7.1 83 1.3 W 17 20 9 11 1021.2 1021.2 0.0
07/05:30am 9.7 5.8 7.0 83 1.3 W 17 20 9 11 1021.0 1021.0 0.0
07/05:00am 8.8 5.5 6.6 86 1.0 WNW 13 17 7 9 1020.9 1020.9 0.0
07/04:30am 7.9 5.3 6.2 89 0.8 WNW 9 13 5 7 1020.5 1020.5 0.0
07/04:00am 7.1 4.0 5.6 90 0.7 WNW 11 13 6 7 1020.5 1020.5 0.0
07/03:30am 7.6 4.5 5.6 87 0.9 WNW 11 13 6 7 1020.4 1020.4 0.0
07/03:00am 8.6 5.6 6.1 84 1.1 WNW 11 13 6 7 1020.4 1020.4 0.0
07/02:30am 10.7 7.6 7.4 80 1.6 W 13 17 7 9 1020.3 1020.3 0.0
07/02:00am 10.6 7.2 7.5 81 1.5 W 15 19 8 10 1020.6 1020.6 0.0
07/01:30am 10.4 7.0 7.5 82 1.4 W 15 17 8 9 1020.6 1020.6 0.0
07/01:00am 9.6 6.4 7.0 84 1.2 W 13 17 7 9 1020.6 1020.6 0.0
07/12:30am 9.3 5.7 6.7 84 1.2 W 15 17 8 9 1020.5 1020.5 0.0
07/12:00am 9.6 5.7 7.0 84 1.2 W 17 20 9 11 1020.4 1020.4 0.0
 
Date/Time
EST
Temp
°C
App
Temp
°C
Dew
Point
Rel
Hum
%
Delta-T
°C
Wind Press
QNH
hPa
Press
MSL
hPa
Rain
since 9 am
mm
Dir
 
Spd
km/h
Gust
km/h
Spd
kts
Gust
kts
06/11:30pm 10.4 6.6 7.5 82 1.4 W 17 20 9 11 1020.4 1020.4 0.0
06/11:00pm 11.1 7.3 7.4 78 1.8 W 17 20 9 11 1020.4 1020.4 0.0
06/10:30pm 12.2 8.6 8.5 78 1.8 W 17 20 9 11 1020.3 1020.3 0.0
06/10:00pm 12.2 8.8 9.0 81 1.6 W 17 20 9 11 1020.1 1020.1 0.0
06/09:30pm 12.2 8.8 9.2 82 1.5 W 17 20 9 11 1020.0 1020.0 0.0
06/09:00pm 12.4 8.7 9.4 82 1.5 WSW 19 24 10 13 1019.8 1019.8 0.0
06/08:30pm 12.7 9.5 9.9 83 1.4 WSW 17 20 9 11 1019.5 1019.5 0.0
06/08:00pm 12.5 8.9 10.0 85 1.3 WSW 19 26 10 14 1019.4 1019.4 0.0
06/07:30pm 13.5 7.6 10.3 81 1.7 WSW 32 41 17 22 1019.1 1019.1 0.0
06/07:00pm 14.4 10.8 8.4 67 3.0 WSW 17 24 9 13 1018.3 1018.3 0.0
06/06:30pm 15.3 9.5 8.1 62 3.6 WSW 28 33 15 18 1017.7 1017.8 0.0
06/06:00pm 16.5 10.0 6.6 52 4.9 W 30 44 16 24 1017.2 1017.3 0.0
06/05:30pm 16.0 11.1 7.0 55 4.5 W 22 30 12 16 1016.9 1017.0 0.0
06/05:00pm 16.8 10.3 6.6 51 5.0 WSW 30 43 16 23 1016.8 1016.9 0.0
06/04:32pm 17.5 10.3 5.1 44 6.0 W 32 50 17 27 1016.5 1016.6 0.0
06/04:30pm 17.7 10.3 5.0 43 6.1 W 33 50 18 27 1016.5 1016.6 0.0
06/04:23pm 17.5 9.7 5.1 44 6.0 W 35 46 19 25 1016.6 1016.7 0.0
06/04:08pm 17.6 9.0 4.5 42 6.2 W 39 54 21 29 1016.5 1016.6 0.0
06/04:00pm 18.2 9.9 4.0 39 6.7 W 37 46 20 25 1016.4 1016.5 0.0
06/03:30pm 18.2 10.8 4.0 39 6.7 WNW 32 46 17 25 1016.4 1016.5 0.0
06/03:00pm 18.2 9.9 4.4 40 6.6 WNW 37 54 20 29 1016.5 1016.6 0.0
06/02:30pm 17.9 10.0 4.1 40 6.5 WNW 35 48 19 26 1016.6 1016.7 0.0
06/02:00pm 18.5 9.7 3.6 37 7.0 WNW 39 61 21 33 1016.6 1016.7 0.0
06/01:54pm 18.5 10.1 3.9 38 6.9 W 37 61 20 33 1016.5 1016.6 0.0
06/01:30pm 17.5 9.7 4.8 43 6.1 W 35 44 19 24 1016.7 1016.8 0.0
06/01:00pm 17.4 9.5 4.4 42 6.2 WNW 35 48 19 26 1016.9 1017.0 0.0
06/12:42pm 17.7 10.6 5.3 44 6.0 WNW 32 50 17 27 1017.2 1017.3 0.0
06/12:30pm 17.6 10.8 5.2 44 6.0 W 30 44 16 24 1017.4 1017.5 0.0
06/12:00pm 16.8 9.3 6.3 50 5.1 WNW 35 44 19 24 1017.8 1017.9 0.0
06/11:30am 15.5 8.5 6.2 54 4.5 WNW 32 44 17 24 1018.2 1018.2 0.0
06/11:00am 15.0 8.6 6.8 58 4.0 WNW 30 37 16 20 1018.0 1018.1 0.0
06/10:30am 14.1 7.6 6.5 60 3.7 WNW 30 39 16 21 1018.2 1018.2 0.0
06/10:00am 12.9 6.7 6.0 63 3.3 WNW 28 35 15 19 1018.4 1018.4 0.0
06/09:30am 11.9 5.6 5.8 66 2.9 WNW 28 35 15 19 1018.4 1018.4 0.0
06/09:00am 10.9 5.0 5.9 71 2.3 WNW 26 33 14 18 1018.3 1018.3 0.0
06/08:30am 9.8 3.8 5.4 74 2.0 WNW 26 33 14 18 1017.9 1018.0 0.0
06/08:00am 8.2 3.2 4.6 78 1.6 NW 20 28 11 15 1017.3 1017.4 0.0
06/07:30am 7.1 2.0 4.1 81 1.3 NW 20 26 11 14 1016.7 1016.8 0.0
06/07:00am 7.2 2.1 4.0 80 1.4 WNW 20 26 11 14 1016.6 1016.7 0.0
06/06:30am 7.1 1.9 3.7 79 1.5 WNW 20 28 11 15 1016.3 1016.4 0.0
06/06:00am 7.2 2.0 3.6 78 1.5 WNW 20 24 11 13 1016.0 1016.1 0.0
06/05:30am 7.7 2.1 3.7 76 1.7 WNW 22 28 12 15 1015.7 1015.8 0.0
06/05:00am 7.1 2.1 3.5 78 1.5 WNW 19 22 10 12 1015.3 1015.4 0.0
06/04:30am 6.7 1.6 3.3 79 1.4 NW 19 22 10 12 1015.1 1015.2 0.0
06/04:00am 7.2 2.0 3.3 76 1.7 WNW 20 24 11 13 1014.7 1014.7 0.0
06/03:30am 7.5 2.2 3.2 74 1.8 WNW 20 26 11 14 1014.4 1014.4 0.0
06/03:00am 7.1 2.0 3.2 76 1.6 WNW 19 22 10 12 1014.4 1014.4 0.0
06/02:30am 7.0 1.8 2.7 74 1.8 WNW 19 22 10 12 1014.4 1014.4 0.0
06/02:00am 7.4 2.2 2.7 72 2.0 WNW 19 24 10 13 1014.6 1014.6 0.0
06/01:30am 7.2 2.0 2.7 73 1.9 NW 19 22 10 12 1014.6 1014.6 0.0
06/01:00am 7.5 2.7 2.6 71 2.0 WNW 17 20 9 11 1014.6 1014.6 0.0
06/12:30am 7.8 3.0 2.7 70 2.1 NW 17 22 9 12 1014.6 1014.6 0.0
06/12:00am 7.9 2.8 2.8 70 2.2 WNW 19 22 10 12 1014.3 1014.3 0.0
 
Date/Time
EST
Temp
°C
App
Temp
°C
Dew
Point
Rel
Hum
%
Delta-T
°C
Wind Press
QNH
hPa
Press
MSL
hPa
Rain
since 9 am
mm
Dir
 
Spd
km/h
Gust
km/h
Spd
kts
Gust
kts
05/11:30pm 6.5 1.7 2.4 75 1.7 WNW 17 17 9 9 1014.4 1014.4 0.0
05/11:00pm 6.7 2.2 2.2 73 1.8 WNW 15 17 8 9 1014.3 1014.3 0.0
05/10:30pm 7.2 2.7 2.3 71 2.0 WNW 15 17 8 9 1014.0 1014.0 0.0
05/10:00pm 8.7 4.3 2.5 65 2.6 WNW 15 17 8 9 1013.7 1013.7 0.0
05/09:30pm 9.7 4.9 2.6 61 3.0 W 17 20 9 11 1013.3 1013.3 0.0
05/09:00pm 10.9 5.5 2.7 57 3.6 W 20 26 11 14 1012.9 1012.9 0.0
05/08:30pm 11.2 5.4 2.5 55 3.8 W 22 28 12 15 1012.5 1012.5 0.0
05/08:00pm 12.1 5.2 2.6 52 4.2 W 28 37 15 20 1012.4 1012.4 0.0
05/07:30pm 12.1 6.0 2.6 52 4.1 W 24 32 13 17 1011.8 1011.8 0.0
05/07:00pm 12.3 6.6 3.0 53 4.1 W 22 28 12 15 1011.4 1011.4 0.0
05/06:30pm 13.2 6.3 2.4 48 4.7 W 28 35 15 19 1010.6 1010.6 0.0
05/06:00pm 13.9 7.2 1.5 43 5.4 WSW 26 33 14 18 1010.0 1010.0 0.0
05/05:30pm 14.8 6.4 1.7 41 5.7 W 35 48 19 26 1009.5 1009.5 0.0
05/05:06pm 15.5 5.5 1.3 38 6.2 W 43 61 23 33 1009.1 1009.1 0.0
05/05:00pm 15.6 4.3 1.0 37 6.4 W 50 61 27 33 1009.0 1009.0 0.0
05/04:30pm 16.5 5.9 0.6 34 6.9 W 46 59 25 32 1008.4 1008.4 0.0
05/04:20pm 16.5 5.5 0.6 34 6.9 W 48 67 26 36 1008.3 1008.3 0.0
05/04:00pm 16.5 5.0 0.2 33 7.1 W 50 65 27 35 1008.0 1008.0 0.0
05/03:52pm 17.0 5.6 0.6 33 7.2 W 50 69 27 37 1008.1 1008.1 0.0
05/03:30pm 16.8 5.3 0.0 32 7.2 W 50 67 27 36 1007.7 1007.7 0.0
05/03:00pm 16.8 4.8 1.3 35 6.9 W 54 67 29 36 1007.4 1007.4 0.0
05/02:30pm 16.3 4.4 2.0 38 6.4 W 54 72 29 39 1007.0 1007.0 0.0
05/02:09pm 15.7 4.3 2.8 42 5.8 WNW 52 72 28 39 1006.8 1006.8 0.0
05/02:00pm 15.9 5.0 3.4 43 5.8 W 50 65 27 35 1006.6 1006.6 0.0
05/01:46pm 16.0 6.0 4.4 46 5.4 W 46 65 25 35 1006.8 1006.8 0.0
05/01:31pm 15.4 4.0 4.8 49 5.0 W 54 72 29 39 1006.8 1006.8 0.0
05/01:30pm 15.3 3.5 4.7 49 5.0 W 56 72 30 39 1006.8 1006.8 0.0
05/01:00pm 17.0 4.7 3.0 39 6.5 W 57 76 31 41 1006.6 1006.6 0.0
05/12:34pm 16.6 3.9 3.3 41 6.1 W 59 78 32 42 1006.5 1006.5 0.0
05/12:32pm 17.0 4.7 3.0 39 6.4 W 57 78 31 42 1006.3 1006.3 0.0
05/12:30pm 17.1 4.8 3.4 40 6.4 W 57 70 31 38 1006.5 1006.5 0.0
05/12:15pm 14.9 3.9 5.1 52 4.6 W 52 70 28 38 1006.7 1006.7 0.0
05/12:10pm 14.3 3.1 5.9 57 4.0 W 54 72 29 39 1006.5 1006.5 0.0
05/12:00pm 13.0 -0.1 6.8 66 3.0 W 65 93 35 50 1006.8 1006.8 0.0
05/11:59am 12.8 -0.7 6.8 67 2.9 W 67 100 36 54 1006.8 1006.8 0.0
05/11:54am 12.5 -0.4 7.6 72 2.4 W 65 100 35 54 1006.6 1006.6 0.0
05/11:52am 13.5 1.0 7.9 69 2.8 WNW 63 100 34 54 1006.4 1006.4 0.0
05/11:50am 16.4 4.5 5.1 47 5.4 WNW 57 100 31 54 1005.7 1005.7 0.0
05/11:38am 17.2 4.0 2.4 37 6.7 WNW 61 82 33 44 1005.6 1005.6 0.0
05/11:30am 17.4 3.8 2.2 36 6.9 WNW 63 78 34 42 1005.6 1005.6 0.0
05/11:02am 17.6 4.7 2.0 35 7.1 WNW 59 82 32 44 1005.4 1005.4 0.0
05/11:01am 17.7 5.2 2.1 35 7.1 WNW 57 82 31 44 1005.0 1005.0 0.0
05/11:00am 17.9 5.4 2.2 35 7.2 WNW 57 74 31 40 1005.6 1005.6 0.0
05/10:39am 18.7 7.3 2.9 35 7.3 WNW 52 70 28 38 1005.3 1005.3 0.0
05/10:34am 18.1 6.0 3.2 37 6.9 WNW 56 70 30 38 1005.5 1005.5 0.0
05/10:30am 17.5 4.8 3.0 38 6.7 WNW 59 80 32 43 1005.3 1005.3 0.0
05/10:19am 17.4 4.7 3.0 38 6.6 WNW 59 89 32 48 1005.0 1005.0 0.0
05/10:13am 17.7 5.4 3.2 38 6.7 WNW 57 72 31 39 1005.3 1005.3 0.0
05/10:00am 17.9 6.1 3.0 37 6.9 WNW 54 74 29 40 1005.2 1005.2 0.0
05/09:57am 17.9 5.8 3.0 37 6.9 WNW 56 74 30 40 1005.2 1005.2 0.0
05/09:30am 17.3 5.1 3.9 41 6.3 WNW 57 72 31 39 1005.1 1005.1 0.0
05/09:03am 17.5 7.3 5.1 44 6.0 WNW 48 67 26 36 1005.0 1005.0 0.0
05/09:00am 17.1 7.3 5.1 45 5.8 WNW 46 67 25 36 1005.1 1005.1 0.0
05/08:52am 16.7 9.4 4.7 45 5.7 WNW 32 50 17 27 1005.0 1005.0 0.0
05/08:30am 17.2 7.8 4.5 43 6.0 WNW 43 57 23 31 1005.0 1005.0 0.0
05/08:00am 17.5 8.5 4.5 42 6.2 WNW 41 59 22 32 1004.5 1004.5 0.0
05/07:30am 17.7 8.9 5.6 45 5.9 NW 41 54 22 29 1004.1 1004.1 0.0
05/07:22am 17.5 12.2 6.7 49 5.4 NW 24 48 13 26 1004.0 1004.0 0.0
05/07:00am 16.7 13.0 8.1 57 4.4 WNW 17 22 9 12 1004.0 1004.0 0.0
05/06:30am 17.5 10.8 7.5 52 5.1 WNW 32 39 17 21 1003.8 1003.8 0.0
05/06:00am 18.0 11.8 8.0 52 5.1 WNW 30 48 16 26 1004.1 1004.1 0.0
05/05:51am 18.2 12.0 7.9 51 5.3 WNW 30 48 16 26 1004.0 1004.0 0.0
05/05:30am 18.4 11.6 7.8 50 5.4 W 33 43 18 23 1004.0 1004.0 0.0
05/05:00am 19.2 11.6 5.6 41 6.7 NW 35 52 19 28 1003.9 1003.9 0.0
05/04:58am 19.1 11.8 5.6 41 6.6 NW 33 52 18 28 1003.9 1003.9 0.0
05/04:30am 19.3 13.2 4.6 38 7.1 NNW 26 35 14 19 1003.0 1003.0 0.0
05/04:00am 19.1 12.2 4.8 39 7.0 NNW 30 39 16 21 1003.0 1003.0 0.0
05/03:30am 19.0 12.1 4.7 39 6.9 NNW 30 37 16 20 1003.2 1003.3 0.0
05/03:00am 18.7 12.2 4.8 40 6.7 N 28 39 15 21 1003.3 1003.4 0.0
05/02:30am 18.9 12.1 5.0 40 6.7 N 30 41 16 22 1003.6 1003.6 0.0
05/02:00am 18.9 12.5 5.4 41 6.6 N 28 39 15 21 1004.5 1004.5 0.0
05/01:30am 19.0 11.6 5.1 40 6.8 N 33 46 18 25 1004.7 1004.7 0.0
05/01:00am 18.7 12.4 5.5 42 6.5 N 28 39 15 21 1005.2 1005.2 0.0
05/12:30am 18.0 11.4 5.9 45 5.9 N 30 43 16 23 1005.9 1005.9 0.0
05/12:00am 17.6 11.7 5.9 46 5.7 N 26 35 14 19 1006.7 1006.7 0.0
 
Date/Time
EST
Temp
°C
App
Temp
°C
Dew
Point
Rel
Hum
%
Delta-T
°C
Wind Press
QNH
hPa
Press
MSL
hPa
Rain
since 9 am
mm
Dir
 
Spd
km/h
Gust
km/h
Spd
kts
Gust
kts
04/11:30pm 17.7 12.6 5.9 46 5.8 N 22 35 12 19 1007.5 1007.5 0.0
04/11:00pm 17.9 12.4 5.8 45 5.9 N 24 37 13 20 1008.1 1008.1 0.0
04/10:30pm 17.7 12.5 5.6 45 5.9 N 22 32 12 17 1008.3 1008.3 0.0
04/10:00pm 17.4 12.6 5.7 46 5.7 N 20 26 11 14 1008.6 1008.6 0.0
04/09:30pm 17.5 12.7 5.8 46 5.7 N 20 26 11 14 1008.7 1008.7 0.0
04/09:00pm 17.7 11.4 5.9 46 5.8 NNE 28 35 15 19 1007.7 1007.7 0.0
04/08:30pm 17.6 12.2 6.5 48 5.5 NNE 24 30 13 16 1008.5 1008.5 0.0
04/08:00pm 17.4 12.8 6.6 49 5.4 NNE 20 28 11 15 1009.0 1009.0 0.0
04/07:30pm 17.1 13.5 6.9 51 5.1 NNE 15 20 8 11 1009.2 1009.2 0.0
04/07:00pm 17.5 14.0 7.0 50 5.3 NE 15 19 8 10 1009.4 1009.4 0.0
04/06:30pm 18.3 14.7 6.8 47 5.8 NNE 15 19 8 10 1009.7 1009.7 0.0
04/06:00pm 19.0 15.1 7.1 46 6.0 NE 17 20 9 11 1009.5 1009.5 0.0
04/05:30pm 20.4 16.4 6.7 41 6.9 NNE 17 24 9 13 1009.8 1009.8 0.0
04/05:00pm 21.9 17.4 6.2 36 8.0 NNE 19 26 10 14 1009.8 1009.8 0.0

Other Formats:

Comma delimited format used in spreadsheet applications
http://www.bom.gov.au/fwo/IDV60801/IDV60801.94843.axf

JavaScript Object Notation format (JSON) in row-major order
http://www.bom.gov.au/fwo/IDV60801/IDV60801.94843.json